WetterOnline ( https://www.wetteronline.de )

Wetter aktuell Ostalb (in 700m)

Aktuelles Wetter: Geislingen/Stötten (737m)

6-stündlich | Neueste Meldungen
Ortszeit Temperatur Wetter
Fr, 05.03. 1:00 3.3° C Nebel
Do, 04.03. 19:00 5.4° C leicht bewölkt
Do, 04.03. 13:00 10.4° C wolkig
Do, 04.03. 7:00 6.1° C bewölkt
Do, 04.03. 1:00 7.0° C bedeckt
Mi, 03.03. 19:00 8.3° C bewölkt
Mi, 03.03. 13:00 9.9° C wolkenlos
Mi, 03.03. 7:00 8.6° C wolkig
Ortszeit Temperatur Wetter
Fr, 05.03. 2:10 3.4° C Nebel
Fr, 05.03. 2:00 3.4° C Nebel
Fr, 05.03. 1:50 3.4° C Nebel
Fr, 05.03. 1:40 3.3° C Nebel
Fr, 05.03. 1:30 3.3° C Nebel
Fr, 05.03. 1:20 3.3° C Nebel
Fr, 05.03. 1:00 3.3° C Nebel
Fr, 05.03. 0:30 3.4° C Nebel
Fr, 05.03. 0:00 3.5° C leichter Regen
Ortszeit Relative Feuchte Sichtweite
Fr, 05.03. 1:00 97% 0.2 km
Do, 04.03. 19:00 78% 30 km
Do, 04.03. 13:00 47% 35 km
Do, 04.03. 7:00 52% 40 km
Do, 04.03. 1:00 53% 30 km
Mi, 03.03. 19:00 57% 30 km
Mi, 03.03. 13:00 47% 35 km
Mi, 03.03. 7:00 41% 40 km
Ortszeit Relative Feuchte Sichtweite
Fr, 05.03. 2:10 99% -
Fr, 05.03. 2:00 97% <100 m
Fr, 05.03. 1:50 97% -
Fr, 05.03. 1:40 97% -
Fr, 05.03. 1:30 98% 100 m
Fr, 05.03. 1:20 98% -
Fr, 05.03. 1:00 97% 0.2 km
Fr, 05.03. 0:30 97% 100 m
Fr, 05.03. 0:00 97% 4.3 km
Ortszeit Niederschlagsmenge Niederschlagsart
Fr, 05.03. 1:00 4 l/m2 in 6 Std. Regen
Do, 04.03. 19:00 0.6 l/m2 in 12 Std. Regen
Do, 04.03. 13:00 0.0 l/m2 in 6 Std. -
Do, 04.03. 7:00 0.1 l/m2 in 12 Std. Regen
Do, 04.03. 1:00 0.0 l/m2 in 6 Std. -
Mi, 03.03. 19:00 0.0 l/m2 in 12 Std. -
Mi, 03.03. 13:00 0.0 l/m2 in 6 Std. -
Mi, 03.03. 7:00 0.0 l/m2 in 12 Std. -
Ortszeit Niederschlagsmenge Niederschlagsart
Fr, 05.03. 2:10 keine Meldung -
Fr, 05.03. 2:00 0.0 l/m2 in 1 Std. -
Fr, 05.03. 1:50 keine Meldung -
Fr, 05.03. 1:40 keine Meldung -
Fr, 05.03. 1:30 0.0 l/m2 in 1 Std. -
Fr, 05.03. 1:20 keine Meldung -
Fr, 05.03. 1:00 0.3 l/m2 in 1 Std. Regen
Fr, 05.03. 0:30 0.3 l/m2 in 1 Std. -
Fr, 05.03. 0:00 1.7 l/m2 in 1 Std. Regen
Ortszeit Stärke Spitze Richtung
km/h Bft. km/h Grad Sektor
Fr, 05.03. 1:00 28 4 46 270° W
Do, 04.03. 19:00 9 2 37 260° W
Do, 04.03. 13:00 25 4 36 270° W
Do, 04.03. 7:00 20 4 30 260° W
Do, 04.03. 1:00 11 2 22 280° W
Mi, 03.03. 19:00 7 2 13 170° S
Mi, 03.03. 13:00 7 2 18 300° NW
Mi, 03.03. 7:00 6 1 20 250° W
Ortszeit Stärke Spitze Richtung
km/h Bft. km/h Grad Sektor
Fr, 05.03. 2:10 25 4 - 280° W
Fr, 05.03. 2:00 28 4 43 270° W
Fr, 05.03. 1:50 28 4 - 270° W
Fr, 05.03. 1:40 28 4 - 270° W
Fr, 05.03. 1:30 28 4 39 270° W
Fr, 05.03. 1:20 28 4 - 270° W
Fr, 05.03. 1:00 28 4 44 270° W
Fr, 05.03. 0:30 31 5 44 270° W
Fr, 05.03. 0:00 28 4 41 260° W
Ortszeit Untergrenze Bedeckung Gattung
total tief tief mittel hoch
Fr, 05.03. 1:00 <30 m 7/8 0/8 - - -
Do, 04.03. 19:00 1800 m 4/8 4/8 - - -
Do, 04.03. 13:00 2400 m 8/8 8/8 - - -
Do, 04.03. 7:00 2100 m 8/8 4/8 - - -
Do, 04.03. 1:00 2100 m 8/8 8/8 - - -
Mi, 03.03. 19:00 2700 m 8/8 6/8 - - -
Mi, 03.03. 13:00 - 0/8 0/8 - - -
Mi, 03.03. 7:00 8100 m 8/8 0/8 - - -
Ortszeit Bedeckungsgrad in Achtel und Wolkenuntergrenze
Fr, 05.03. 2:10 8(<30m)
Fr, 05.03. 2:00 8(<30m)
Fr, 05.03. 1:50 8(<30m)
Fr, 05.03. 1:40 8(<30m)
Fr, 05.03. 1:30 8(<30m)
Fr, 05.03. 1:20 8(<30m)
Fr, 05.03. 1:00 7(<30m)
Fr, 05.03. 0:30 7(<30m) 8(150m)
Fr, 05.03. 0:00 7(<30m)
Ortszeit Luftdruck NN (hPa) Tendenz (hPa in 3 Std.)
Fr, 05.03. 1:00 1018 0,0
Do, 04.03. 19:00 1018 - 0,7
Do, 04.03. 13:00 1019 - 1,6
Do, 04.03. 7:00 1023 - 1,4
Do, 04.03. 1:00 1026 - 1,5
Mi, 03.03. 19:00 1028 - 1,0
Mi, 03.03. 13:00 1030 - 0,4
Mi, 03.03. 7:00 1031 - 0,1
Ortszeit Luftdruck NN (hPa) Tendenz (hPa in 3 Std.)
Fr, 05.03. 2:10 1019 keine Meldung
Fr, 05.03. 2:00 1018 0,0
Fr, 05.03. 1:50 1018 keine Meldung
Fr, 05.03. 1:40 1018 keine Meldung
Fr, 05.03. 1:30 1018 - 0,3
Fr, 05.03. 1:20 1018 keine Meldung
Fr, 05.03. 1:00 1018 0,0
Fr, 05.03. 0:30 1018 + 0,2
Fr, 05.03. 0:00 1018 + 0,3
Ortszeit Schneehöhe (cm)
Fr, 05.03. 1:00 0
Do, 04.03. 19:00 0
Do, 04.03. 13:00 0
Do, 04.03. 7:00 0
Do, 04.03. 1:00 0
Mi, 03.03. 19:00 0
Mi, 03.03. 13:00 0
Mi, 03.03. 7:00 0
Ortszeit Schneehöhe (cm)
Fr, 05.03. 2:10 0
Fr, 05.03. 2:00 0
Fr, 05.03. 1:50 0
Fr, 05.03. 1:40 0
Fr, 05.03. 1:30 0
Fr, 05.03. 1:20 0
Fr, 05.03. 1:00 0
Fr, 05.03. 0:30 0
Fr, 05.03. 0:00 0
Link zu dieser Seite / Seite empfehlen

Das Wetter in ...